createdAt,value
2022-08-12T00:00:57.952Z,69.6
2022-08-12T00:03:24.050Z,69.5
2022-08-12T00:05:50.144Z,69.6
2022-08-12T00:08:16.239Z,70
2022-08-12T00:10:41.353Z,69.8
2022-08-12T00:13:07.445Z,70.3
2022-08-12T00:15:33.537Z,70.3
2022-08-12T00:17:59.633Z,70
2022-08-12T00:20:25.726Z,70
2022-08-12T00:22:51.827Z,70.2
2022-08-12T00:25:17.930Z,70.3
2022-08-12T00:27:43.040Z,70
2022-08-12T00:30:08.151Z,70
2022-08-12T00:32:34.257Z,70.5
2022-08-12T00:35:00.347Z,70.2
2022-08-12T00:37:25.484Z,70.7
2022-08-12T00:39:50.577Z,70.5
2022-08-12T00:42:16.678Z,71
2022-08-12T00:44:42.782Z,71.1
2022-08-12T00:47:08.873Z,71.3
2022-08-12T00:49:34.966Z,71.5
2022-08-12T00:52:00.081Z,71.4
2022-08-12T00:54:26.182Z,71.9
2022-08-12T00:59:18.376Z,72.3
2022-08-12T01:01:44.478Z,72.7
2022-08-12T01:04:10.562Z,72.7
2022-08-12T01:06:36.655Z,73
2022-08-12T01:09:02.750Z,72.7
2022-08-12T01:11:28.841Z,73.3
2022-08-12T01:13:54.946Z,73.7
2022-08-12T01:16:21.043Z,73.5
2022-08-12T01:18:47.120Z,73.6
2022-08-12T01:21:13.217Z,73.7
2022-08-12T01:23:38.342Z,73.6
2022-08-12T01:26:04.428Z,73.7
2022-08-12T01:28:30.516Z,74.6
2022-08-12T01:30:55.657Z,75
2022-08-12T01:33:20.752Z,75.5
2022-08-12T01:35:45.888Z,76.2
2022-08-12T01:38:10.982Z,76.3
2022-08-12T01:40:37.087Z,76.4
2022-08-12T01:43:03.177Z,76.3
2022-08-12T01:45:29.269Z,76.5
2022-08-12T01:47:55.367Z,76.2
2022-08-12T01:50:21.455Z,76.1
2022-08-12T01:52:47.568Z,76.4
2022-08-12T01:55:13.661Z,76.9
2022-08-12T01:57:39.746Z,77.1
2022-08-12T02:00:05.839Z,77.3
2022-08-12T02:02:31.947Z,77
2022-08-12T02:04:58.030Z,77.1
2022-08-12T02:07:24.125Z,76.4
2022-08-12T02:09:49.235Z,76.2
2022-08-12T02:12:15.342Z,76.6
2022-08-12T02:14:41.420Z,76.5
2022-08-12T02:17:07.532Z,76.6
2022-08-12T02:19:33.617Z,76.9
2022-08-12T02:21:59.724Z,77.2
2022-08-12T02:24:25.816Z,77.4
2022-08-12T02:26:50.926Z,78
2022-08-12T02:29:16.074Z,78
2022-08-12T02:31:42.140Z,78.9
2022-08-12T02:34:08.228Z,79.1
2022-08-12T02:36:34.321Z,79.6
2022-08-12T02:39:00.428Z,79.4
2022-08-12T02:41:26.521Z,79
2022-08-12T02:43:52.615Z,79.1
2022-08-12T02:46:18.699Z,80
2022-08-12T02:48:44.797Z,80.6
2022-08-12T02:51:10.898Z,80.6
2022-08-12T02:53:36.997Z,80
2022-08-12T02:56:03.106Z,80
2022-08-12T02:58:29.254Z,79.8
2022-08-12T03:00:54.290Z,79.7
2022-08-12T03:03:20.390Z,80
2022-08-12T03:05:46.498Z,80
2022-08-12T03:08:12.598Z,80
2022-08-12T03:10:38.704Z,80.2
2022-08-12T03:13:04.774Z,80.6
2022-08-12T03:15:30.878Z,80.5
2022-08-12T03:17:56.009Z,80.4
2022-08-12T03:20:21.109Z,81
2022-08-12T03:22:46.240Z,80.9
2022-08-12T03:25:11.345Z,81.2
2022-08-12T03:27:37.441Z,81
2022-08-12T03:30:03.543Z,81.5
2022-08-12T03:32:29.629Z,82
2022-08-12T03:34:55.725Z,82
2022-08-12T03:37:21.831Z,82
2022-08-12T03:39:47.922Z,81.8
2022-08-12T03:42:14.025Z,81.6
2022-08-12T03:44:40.111Z,82.1
2022-08-12T03:47:06.205Z,82
2022-08-12T03:49:32.297Z,82.5
2022-08-12T03:51:58.404Z,82.3
2022-08-12T03:54:24.500Z,82
2022-08-12T03:56:49.605Z,82.1
2022-08-12T03:59:15.716Z,82.6
2022-08-12T04:01:41.812Z,82.5
2022-08-12T04:04:07.892Z,82.7
2022-08-12T04:06:33.986Z,82.8
2022-08-12T04:09:00.081Z,82.8
2022-08-12T04:11:26.178Z,82.7
2022-08-12T04:13:51.307Z,83
2022-08-12T04:16:16.424Z,82.7
2022-08-12T04:18:41.550Z,82.7
2022-08-12T04:21:06.643Z,82.9
2022-08-12T04:23:32.745Z,82.8
2022-08-12T04:25:58.838Z,82.7
2022-08-12T04:28:24.932Z,82.8
2022-08-12T04:30:51.039Z,82.9
2022-08-12T04:33:17.135Z,82.8
2022-08-12T04:35:43.225Z,82.5
2022-08-12T04:38:09.322Z,82
2022-08-12T04:40:35.411Z,82.3
2022-08-12T04:43:01.496Z,82.5
2022-08-12T04:45:27.589Z,83
2022-08-12T04:47:53.686Z,83.1
2022-08-12T04:50:19.801Z,83.7
2022-08-12T04:52:44.899Z,83.8
2022-08-12T04:55:11.008Z,83.3
2022-08-12T04:57:37.107Z,83.5
2022-08-12T05:00:03.187Z,84
2022-08-12T05:02:29.276Z,83.8
2022-08-12T05:04:55.381Z,84.2
2022-08-12T05:07:21.485Z,84.2
2022-08-12T05:09:46.644Z,84.2
2022-08-12T05:12:11.707Z,84.4
2022-08-12T05:14:37.805Z,84.4
2022-08-12T05:17:03.921Z,83.9
2022-08-12T05:19:29.999Z,83.7
2022-08-12T05:21:56.095Z,83.4
2022-08-12T05:24:22.190Z,82.9
2022-08-12T05:26:48.279Z,83.1
2022-08-12T05:29:14.384Z,83
2022-08-12T05:31:40.486Z,81.6
2022-08-12T05:34:06.575Z,81.3
2022-08-12T05:36:32.679Z,81.4
2022-08-12T05:38:58.772Z,80.7
2022-08-12T05:41:24.869Z,81
2022-08-12T05:43:49.973Z,80.4
2022-08-12T05:46:16.066Z,79.6
2022-08-12T05:51:08.260Z,77.9
2022-08-12T05:53:34.353Z,78
2022-08-12T05:56:00.450Z,76.4
2022-08-12T05:58:26.537Z,75.7
2022-08-12T06:00:52.642Z,74.9
2022-08-12T06:03:17.757Z,74.4
2022-08-12T06:05:42.881Z,74.6
2022-08-12T06:08:07.997Z,74.1
2022-08-12T06:10:33.101Z,73.2
2022-08-12T06:12:59.207Z,74
2022-08-12T06:15:25.287Z,73.9
2022-08-12T06:20:17.478Z,73.2
2022-08-12T06:22:43.582Z,72.9
2022-08-12T06:25:09.679Z,72.1
2022-08-12T06:27:35.769Z,71.5
2022-08-12T06:30:01.876Z,72.3
2022-08-12T06:32:27.961Z,71.5
2022-08-12T06:34:54.045Z,71
2022-08-12T06:37:20.150Z,70.4
2022-08-12T06:39:46.241Z,69.4
2022-08-12T06:42:11.354Z,69.3
2022-08-12T06:44:37.456Z,69.1
2022-08-12T06:47:03.552Z,68.9
2022-08-12T06:49:29.642Z,68.5
2022-08-12T06:51:55.731Z,67.5
2022-08-12T06:54:21.831Z,65.8
2022-08-12T06:56:47.934Z,66.4
2022-08-12T06:59:14.020Z,65.7
2022-08-12T07:01:39.148Z,66.9
2022-08-12T07:04:04.257Z,66.1
2022-08-12T07:06:29.378Z,65.6
2022-08-12T07:08:54.514Z,64.5
2022-08-12T07:13:45.717Z,63.2
2022-08-12T07:16:10.822Z,62.3
2022-08-12T07:18:35.964Z,62.3
2022-08-12T07:21:02.041Z,61.3
2022-08-12T07:23:28.130Z,61.5
2022-08-12T07:25:54.226Z,60.9
2022-08-12T07:28:20.327Z,60.9
2022-08-12T07:30:46.430Z,60.2
2022-08-12T07:33:12.501Z,59.4
2022-08-12T07:35:38.601Z,59.7
2022-08-12T07:38:04.705Z,58.4
2022-08-12T07:40:30.796Z,58
2022-08-12T07:42:56.894Z,58.1
2022-08-12T07:45:22.976Z,57.4
2022-08-12T07:47:49.073Z,57.1
2022-08-12T07:50:14.186Z,56.7
2022-08-12T07:52:40.285Z,56.9
2022-08-12T07:55:06.374Z,56.6
2022-08-12T07:57:32.475Z,55.9
2022-08-12T07:59:58.579Z,55.5
2022-08-12T08:02:24.660Z,55.1
2022-08-12T08:04:50.755Z,54.3
2022-08-12T08:07:15.890Z,54.4
2022-08-12T08:09:41.000Z,53.7
2022-08-12T08:12:06.116Z,54.1
2022-08-12T08:14:31.244Z,53.3
2022-08-12T08:16:57.319Z,52.6
2022-08-12T08:19:23.417Z,52.7
2022-08-12T08:21:49.511Z,51.5
2022-08-12T08:24:15.609Z,51.4
2022-08-12T08:26:41.711Z,50.9
2022-08-12T08:29:07.798Z,50.6
2022-08-12T08:31:33.893Z,50.7
2022-08-12T08:33:59.976Z,50
2022-08-12T08:36:26.083Z,49.9
2022-08-12T08:38:52.175Z,49.4
2022-08-12T08:41:18.281Z,48.1
2022-08-12T08:43:44.371Z,47.5
2022-08-12T08:46:09.473Z,47.3
2022-08-12T08:48:35.628Z,46.4
2022-08-12T08:51:01.679Z,45.6
2022-08-12T08:53:27.839Z,46.6
2022-08-12T08:55:53.856Z,45.3
2022-08-12T08:58:19.960Z,45.5
2022-08-12T09:00:45.070Z,44.2
2022-08-12T09:03:10.203Z,43.8
2022-08-12T09:05:35.307Z,45
2022-08-12T09:08:00.469Z,44.1
2022-08-12T09:10:25.538Z,44.3
2022-08-12T09:12:51.639Z,43.7
2022-08-12T09:15:17.730Z,42.1
2022-08-12T09:17:43.829Z,42.3
2022-08-12T09:20:09.930Z,42.3
2022-08-12T09:22:36.035Z,42.1
2022-08-12T09:25:02.149Z,42.5
2022-08-12T09:27:28.228Z,42.4
2022-08-12T09:29:54.317Z,42.6
2022-08-12T09:32:20.411Z,42.9
2022-08-12T09:34:46.503Z,42.6
2022-08-12T09:37:12.588Z,42
2022-08-12T09:39:38.694Z,41.8
2022-08-12T09:42:03.832Z,41.7
2022-08-12T09:44:29.897Z,41.4
2022-08-12T09:46:56.036Z,41.4
2022-08-12T09:49:22.108Z,41.2
2022-08-12T09:51:48.227Z,40.6
2022-08-12T09:54:15.363Z,41.1
2022-08-12T09:56:40.436Z,41.6
2022-08-12T09:59:05.554Z,40.8
2022-08-12T10:01:30.595Z,40.6
2022-08-12T10:03:55.735Z,40.3
2022-08-12T10:06:20.851Z,40.5
2022-08-12T10:08:46.961Z,40
2022-08-12T10:11:13.047Z,39.5
2022-08-12T10:13:39.147Z,39
2022-08-12T10:16:05.243Z,39.5
2022-08-12T10:18:31.329Z,38.3
2022-08-12T10:20:57.446Z,38.4
2022-08-12T10:23:23.510Z,37.8
2022-08-12T10:25:49.622Z,38.9
2022-08-12T10:28:15.706Z,38.3
2022-08-12T10:30:41.816Z,37.7
2022-08-12T10:40:26.200Z,37.4
2022-08-12T10:42:51.341Z,37.7
2022-08-12T10:45:17.416Z,37.4
2022-08-12T10:47:42.506Z,37.3
2022-08-12T10:50:08.607Z,37.5
2022-08-12T10:52:34.692Z,36.6
2022-08-12T10:55:00.814Z,37.2
2022-08-12T10:57:32.638Z,37.5
2022-08-12T10:59:52.974Z,36.8
2022-08-12T11:02:19.074Z,37.2
2022-08-12T11:04:45.167Z,36.7
2022-08-12T11:07:11.257Z,36.3
2022-08-12T11:09:37.363Z,36
2022-08-12T11:12:02.466Z,36.8
2022-08-12T11:14:27.589Z,36.4
2022-08-12T11:16:53.686Z,36.3
2022-08-12T11:19:19.770Z,36.1
2022-08-12T11:21:45.868Z,35.8
2022-08-12T11:24:11.978Z,34.5
2022-08-12T11:26:38.064Z,34.5
2022-08-12T11:29:04.182Z,34.7
2022-08-12T11:31:30.243Z,35.1
2022-08-12T11:33:56.349Z,35.5
2022-08-12T11:36:22.457Z,34.2
2022-08-12T11:38:48.512Z,35
2022-08-12T11:41:14.671Z,34.8
2022-08-12T11:43:40.725Z,33.6
2022-08-12T11:46:05.822Z,34.1
2022-08-12T11:48:31.914Z,34.7
2022-08-12T11:50:58.039Z,34.4
2022-08-12T11:53:24.108Z,35.5
2022-08-12T11:55:50.219Z,35.9
2022-08-12T11:58:16.311Z,34.8
2022-08-12T12:00:42.407Z,34.8
2022-08-12T12:03:07.548Z,33.5
2022-08-12T12:05:32.657Z,33.9
2022-08-12T12:07:58.719Z,33.3
2022-08-12T12:10:24.878Z,33.3
2022-08-12T12:12:50.913Z,33.7
2022-08-12T12:15:17.014Z,34.5
2022-08-12T12:17:43.143Z,34.6
2022-08-12T12:20:09.215Z,34.1
2022-08-12T12:22:35.301Z,34.2
2022-08-12T12:25:01.429Z,34.9
2022-08-12T12:27:27.491Z,35
2022-08-12T12:29:53.584Z,35.1
2022-08-12T12:32:19.730Z,34.9
2022-08-12T12:34:45.780Z,34.6
2022-08-12T12:39:37.019Z,34.5
2022-08-12T12:42:03.091Z,34
2022-08-12T12:44:29.191Z,33.2
2022-08-12T12:46:55.322Z,32.5
2022-08-12T12:49:21.414Z,32
2022-08-12T12:51:47.503Z,32.7
2022-08-12T12:54:13.580Z,32.4
2022-08-12T12:56:38.721Z,33
2022-08-12T12:59:03.825Z,32.4
2022-08-12T13:01:28.927Z,32.5
2022-08-12T13:03:54.044Z,32.9
2022-08-12T13:06:20.151Z,34.1
2022-08-12T13:08:45.278Z,34.3
2022-08-12T13:11:10.416Z,35
2022-08-12T13:13:36.468Z,34.9
2022-08-12T13:16:02.562Z,34.6
2022-08-12T13:18:28.674Z,33.4
2022-08-12T13:20:54.762Z,32.3
2022-08-12T13:23:20.857Z,32.8
2022-08-12T13:25:46.942Z,33.1
2022-08-12T13:28:13.074Z,31.8
2022-08-12T13:30:39.164Z,30.4
2022-08-12T13:33:05.260Z,31.6
2022-08-12T13:35:31.330Z,29.9
2022-08-12T13:37:57.472Z,29.9
2022-08-12T13:40:23.565Z,29.4
2022-08-12T13:42:48.690Z,29.3
2022-08-12T13:45:14.724Z,28.2
2022-08-12T13:47:40.823Z,27.9
2022-08-12T13:50:06.964Z,27.8
2022-08-12T13:52:33.058Z,27.1
2022-08-12T13:54:59.150Z,28.5
2022-08-12T13:57:25.234Z,29.8
2022-08-12T13:59:50.352Z,29.8
2022-08-12T14:02:15.455Z,28.4
2022-08-12T14:04:40.600Z,29.4
2022-08-12T14:07:05.684Z,29
2022-08-12T14:09:31.827Z,27.7
2022-08-12T14:11:57.885Z,29.2
2022-08-12T14:14:23.982Z,30.7
2022-08-12T14:16:50.082Z,29.4
2022-08-12T14:19:16.171Z,28.3
2022-08-12T14:21:42.283Z,29.2
2022-08-12T14:26:34.497Z,32.5
2022-08-12T14:29:00.597Z,32.7
2022-08-12T14:31:26.668Z,33.1
2022-08-12T14:33:52.769Z,33.3
2022-08-12T14:36:18.850Z,33.7
2022-08-12T14:38:43.984Z,33.3
2022-08-12T14:41:10.066Z,33.7
2022-08-12T14:43:36.179Z,33.3
2022-08-12T14:46:02.266Z,34
2022-08-12T14:48:28.359Z,33.6
2022-08-12T14:50:54.458Z,31.9
2022-08-12T14:53:20.555Z,29.6
2022-08-12T14:55:46.667Z,31
2022-08-12T14:58:11.792Z,29.5
2022-08-12T15:00:36.893Z,29.4
2022-08-12T15:03:02.006Z,30
2022-08-12T15:05:27.105Z,31.3
2022-08-12T15:07:53.191Z,31.5
2022-08-12T15:10:19.323Z,32.4
2022-08-12T15:12:45.418Z,32.6
2022-08-12T15:15:11.504Z,31.3
2022-08-12T15:17:37.600Z,30.4
2022-08-12T15:22:29.771Z,27.8
2022-08-12T15:24:55.904Z,27.8
2022-08-12T15:27:21.977Z,27.6
2022-08-12T15:29:48.080Z,27.4
2022-08-12T15:32:14.166Z,27.8
2022-08-12T15:34:40.292Z,27
2022-08-12T15:37:05.418Z,27.2
2022-08-12T15:39:31.488Z,26.9
2022-08-12T15:41:57.567Z,29.8
2022-08-12T15:44:23.678Z,30.6
2022-08-12T15:46:49.762Z,31.1
2022-08-12T15:49:15.894Z,31.1
2022-08-12T15:51:41.987Z,31.9
2022-08-12T15:54:08.096Z,30
2022-08-12T15:56:33.215Z,29.1
2022-08-12T15:58:58.298Z,28.7
2022-08-12T16:01:24.387Z,28.4
2022-08-12T16:03:50.505Z,27.4
2022-08-12T16:06:16.610Z,28.5
2022-08-12T16:08:42.680Z,30.1
2022-08-12T16:11:08.811Z,30.3
2022-08-12T16:13:34.893Z,30.3
2022-08-12T16:16:01.005Z,29.3
2022-08-12T16:18:27.075Z,29.1
2022-08-12T16:20:53.177Z,29.3
2022-08-12T16:23:19.268Z,27.8
2022-08-12T16:25:45.376Z,27.7
2022-08-12T16:28:11.469Z,27.7
2022-08-12T16:30:36.597Z,28.4
2022-08-12T16:33:02.659Z,28.4
2022-08-12T16:35:28.780Z,27.4
2022-08-12T16:37:54.859Z,28
2022-08-12T16:40:21.000Z,27.7
2022-08-12T16:42:47.080Z,27.2
2022-08-12T16:45:13.180Z,26.6
2022-08-12T16:47:38.270Z,27.2
2022-08-12T16:50:03.399Z,26.7
2022-08-12T16:52:28.568Z,27
2022-08-12T16:54:53.659Z,27
2022-08-12T16:57:19.754Z,26.9
2022-08-12T16:59:45.823Z,26.6
2022-08-12T17:02:11.913Z,27.2
2022-08-12T17:04:38.013Z,26.5
2022-08-12T17:07:04.148Z,27.2
2022-08-12T17:09:29.271Z,27
2022-08-12T17:11:55.344Z,27.2
2022-08-12T17:14:21.451Z,29.4
2022-08-12T17:16:47.528Z,27.5
2022-08-12T17:19:13.656Z,28.4
2022-08-12T17:21:39.720Z,27.8
2022-08-12T17:24:05.853Z,28.3
2022-08-12T17:26:31.945Z,28.1
2022-08-12T17:28:58.002Z,28.4
2022-08-12T17:31:24.101Z,28.7
2022-08-12T17:33:50.209Z,28.3
2022-08-12T17:36:16.306Z,30.3
2022-08-12T17:38:42.420Z,31.3
2022-08-12T17:41:07.513Z,31.9
2022-08-12T17:43:32.614Z,32.4
2022-08-12T17:45:57.738Z,33
2022-08-12T17:48:23.831Z,33
2022-08-12T17:50:49.934Z,33.1
2022-08-12T17:53:16.026Z,33.7
2022-08-12T17:55:42.126Z,33.7
2022-08-12T17:58:08.203Z,33.4
2022-08-12T18:00:34.333Z,33.6
2022-08-12T18:03:00.443Z,33.6
2022-08-12T18:05:26.505Z,34.2
2022-08-12T18:07:52.588Z,34.2
2022-08-12T18:10:18.690Z,34.6
2022-08-12T18:12:44.799Z,34.2
2022-08-12T18:15:10.903Z,34.1
2022-08-12T18:17:35.994Z,34.2
2022-08-12T18:20:02.075Z,34.9
2022-08-12T18:22:28.204Z,36.6
2022-08-12T18:24:54.277Z,36
2022-08-12T18:27:20.387Z,38.5
2022-08-12T18:29:46.459Z,39.9
2022-08-12T18:32:12.595Z,41.9
2022-08-12T18:34:37.708Z,42
2022-08-12T18:37:02.826Z,43.2
2022-08-12T18:39:27.922Z,44
2022-08-12T18:41:53.017Z,45
2022-08-12T18:44:19.130Z,46.1
2022-08-12T18:46:45.234Z,46.1
2022-08-12T18:49:11.330Z,46.3
2022-08-12T18:51:37.435Z,47
2022-08-12T18:54:03.518Z,47.4
2022-08-12T18:56:29.614Z,47.7
2022-08-12T18:58:55.724Z,48
2022-08-12T19:01:21.804Z,47.8
2022-08-12T19:03:47.901Z,48
2022-08-12T19:06:14.012Z,48
2022-08-12T19:08:40.083Z,48.3
2022-08-12T19:11:06.164Z,47.6
2022-08-12T19:13:31.311Z,48.1
2022-08-12T19:15:57.390Z,48
2022-08-12T19:18:23.487Z,48.1
2022-08-12T19:20:49.569Z,48.7
2022-08-12T19:23:15.663Z,49.4
2022-08-12T19:25:41.788Z,49.9
2022-08-12T19:28:07.889Z,50.5
2022-08-12T19:30:32.969Z,50.7
2022-08-12T19:32:58.114Z,51.6
2022-08-12T19:35:24.195Z,52
2022-08-12T19:37:49.367Z,52.3
2022-08-12T19:40:14.433Z,53.1
2022-08-12T19:42:40.526Z,53.4
2022-08-12T19:45:06.615Z,53.7
2022-08-12T19:47:32.703Z,54.7
2022-08-12T19:49:57.837Z,54.9
2022-08-12T19:52:22.975Z,55.2
2022-08-12T19:54:48.104Z,55.2
2022-08-12T19:57:13.166Z,55.6
2022-08-12T19:59:39.303Z,55.9
2022-08-12T20:02:05.376Z,56.6
2022-08-12T20:04:31.508Z,56.1
2022-08-12T20:06:57.579Z,57.1
2022-08-12T20:09:23.649Z,57.1
2022-08-12T20:11:49.747Z,56.9
2022-08-12T20:14:15.824Z,57.5
2022-08-12T20:16:41.969Z,58
2022-08-12T20:19:08.046Z,58.2
2022-08-12T20:21:35.896Z,58
2022-08-12T20:24:00.229Z,58.3
2022-08-12T20:26:26.334Z,58.5
2022-08-12T20:28:51.448Z,59
2022-08-12T20:31:17.546Z,59.1
2022-08-12T20:33:43.658Z,59.4
2022-08-12T20:36:12.619Z,59.1
2022-08-12T20:38:35.846Z,59.7
2022-08-12T20:41:01.921Z,60.4
2022-08-12T20:43:28.002Z,60.4
2022-08-12T20:45:53.188Z,60.5
2022-08-12T20:48:18.261Z,60.6
2022-08-12T20:50:47.605Z,61.1
2022-08-12T20:53:08.473Z,61.2
2022-08-12T20:55:34.584Z,61.3
2022-08-12T20:58:00.647Z,60.6
2022-08-12T21:00:26.772Z,61.4
2022-08-12T21:02:52.883Z,61.3
2022-08-12T21:05:18.937Z,61.9
2022-08-12T21:07:45.054Z,61.8
2022-08-12T21:10:11.127Z,62.3
2022-08-12T21:12:37.545Z,62.6
2022-08-12T21:15:03.340Z,62.4
2022-08-12T21:17:29.426Z,62.8
2022-08-12T21:19:55.526Z,62.9
2022-08-12T21:22:21.610Z,63
2022-08-12T21:24:46.761Z,63.4
2022-08-12T21:27:12.851Z,63.1
2022-08-12T21:29:38.919Z,63.8
2022-08-12T21:32:34.140Z,63.3
2022-08-12T21:34:31.118Z,63.2
2022-08-12T21:36:57.237Z,63.8
2022-08-12T21:39:23.317Z,64.2
2022-08-12T21:41:48.415Z,64.3
2022-08-12T21:44:13.521Z,64.7
2022-08-12T21:46:39.631Z,64.8
2022-08-12T21:49:05.759Z,64.8
2022-08-12T21:51:31.829Z,65
2022-08-12T21:53:57.909Z,65
2022-08-12T21:56:24.027Z,65.1
2022-08-12T21:58:50.124Z,65.4
2022-08-12T22:01:16.198Z,65.4
2022-08-12T22:03:42.297Z,65.5
2022-08-12T22:06:08.375Z,66.4
2022-08-12T22:08:34.476Z,66.7
2022-08-12T22:11:00.601Z,67.3
2022-08-12T22:13:26.663Z,67.6
2022-08-12T22:15:51.799Z,67.6
2022-08-12T22:18:17.885Z,67.7
2022-08-12T22:20:44.006Z,67.6
2022-08-12T22:23:10.058Z,67.6
2022-08-12T22:25:36.161Z,68.2
2022-08-12T22:28:02.255Z,67.9
2022-08-12T22:30:28.387Z,68.1
2022-08-12T22:32:53.508Z,68.1
2022-08-12T22:35:18.575Z,68
2022-08-12T22:37:44.684Z,68.6
2022-08-12T22:40:10.775Z,68.7
2022-08-12T22:42:36.868Z,68.5
2022-08-12T22:45:02.972Z,68.4
2022-08-12T22:47:29.051Z,68.3
2022-08-12T22:49:55.179Z,68
2022-08-12T22:52:21.280Z,68.9
2022-08-12T22:54:47.359Z,68.5
2022-08-12T22:57:13.451Z,68.7
2022-08-12T22:59:39.537Z,68.7
2022-08-12T23:02:05.634Z,69
2022-08-12T23:04:31.767Z,69.7
2022-08-12T23:06:56.852Z,69.6
2022-08-12T23:09:22.967Z,69.6
2022-08-12T23:11:49.042Z,70.1
2022-08-12T23:14:15.118Z,70.2
2022-08-12T23:16:41.300Z,70.4
2022-08-12T23:19:07.320Z,70.7
2022-08-12T23:21:33.416Z,70.9
2022-08-12T23:23:58.562Z,71
2022-08-12T23:26:23.631Z,71.2
2022-08-12T23:28:49.774Z,71.4
2022-08-12T23:31:15.884Z,71.5
2022-08-12T23:33:41.940Z,72
2022-08-12T23:36:08.019Z,72.5
2022-08-12T23:38:34.145Z,72
2022-08-12T23:41:00.220Z,71.7
2022-08-12T23:43:26.343Z,71.7
2022-08-12T23:45:52.411Z,71.9
2022-08-12T23:48:18.499Z,72.3
2022-08-12T23:50:44.636Z,72.6
2022-08-12T23:53:10.684Z,72.8
2022-08-12T23:55:36.826Z,73
2022-08-12T23:58:01.905Z,72.9
